sensor_id;sensor_type;location;lat;lon;timestamp;temperature;humidity
32769;DHT22;23049;54.304;8.826;2023-10-31T00:00:21;11.90;99.90
32769;DHT22;23049;54.304;8.826;2023-10-31T00:02:46;12.00;99.90
32769;DHT22;23049;54.304;8.826;2023-10-31T00:05:12;11.90;99.90
32769;DHT22;23049;54.304;8.826;2023-10-31T00:07:37;12.00;99.90
32769;DHT22;23049;54.304;8.826;2023-10-31T00:10:03;11.90;99.90
32769;DHT22;23049;54.304;8.826;2023-10-31T00:12:29;11.90;99.90
32769;DHT22;23049;54.304;8.826;2023-10-31T00:14:54;11.90;99.90
32769;DHT22;23049;54.304;8.826;2023-10-31T00:17:20;11.90;99.90
32769;DHT22;23049;54.304;8.826;2023-10-31T00:19:45;11.90;99.90
32769;DHT22;23049;54.304;8.826;2023-10-31T00:22:11;11.90;99.90
32769;DHT22;23049;54.304;8.826;2023-10-31T00:24:36;11.90;99.90
32769;DHT22;23049;54.304;8.826;2023-10-31T00:27:02;11.90;99.90
32769;DHT22;23049;54.304;8.826;2023-10-31T00:29:27;11.90;99.90
32769;DHT22;23049;54.304;8.826;2023-10-31T00:31:53;11.90;99.90
32769;DHT22;23049;54.304;8.826;2023-10-31T00:34:18;11.80;99.90
32769;DHT22;23049;54.304;8.826;2023-10-31T00:36:44;11.90;99.90
32769;DHT22;23049;54.304;8.826;2023-10-31T00:39:09;11.90;99.90
32769;DHT22;23049;54.304;8.826;2023-10-31T00:41:35;11.80;99.90
32769;DHT22;23049;54.304;8.826;2023-10-31T00:44:00;11.80;99.90
32769;DHT22;23049;54.304;8.826;2023-10-31T00:46:26;11.90;99.90
32769;DHT22;23049;54.304;8.826;2023-10-31T00:48:51;11.90;99.90
32769;DHT22;23049;54.304;8.826;2023-10-31T00:51:17;11.80;99.90
32769;DHT22;23049;54.304;8.826;2023-10-31T00:53:42;11.90;99.90
32769;DHT22;23049;54.304;8.826;2023-10-31T00:56:08;11.90;99.90
32769;DHT22;23049;54.304;8.826;2023-10-31T00:58:33;11.80;99.90
32769;DHT22;23049;54.304;8.826;2023-10-31T01:00:59;11.90;99.90
32769;DHT22;23049;54.304;8.826;2023-10-31T01:03:25;11.80;99.90
32769;DHT22;23049;54.304;8.826;2023-10-31T01:05:50;11.80;99.90
32769;DHT22;23049;54.304;8.826;2023-10-31T01:08:16;11.90;99.90
32769;DHT22;23049;54.304;8.826;2023-10-31T01:10:41;11.80;99.90
32769;DHT22;23049;54.304;8.826;2023-10-31T01:13:07;11.90;99.90
32769;DHT22;23049;54.304;8.826;2023-10-31T01:15:32;11.90;99.90
32769;DHT22;23049;54.304;8.826;2023-10-31T01:17:58;11.90;99.90
32769;DHT22;23049;54.304;8.826;2023-10-31T01:20:23;11.90;99.90
32769;DHT22;23049;54.304;8.826;2023-10-31T01:22:49;11.90;99.90
32769;DHT22;23049;54.304;8.826;2023-10-31T01:25:15;11.90;99.90
32769;DHT22;23049;54.304;8.826;2023-10-31T01:27:40;11.90;99.90
32769;DHT22;23049;54.304;8.826;2023-10-31T01:30:07;11.90;99.90
32769;DHT22;23049;54.304;8.826;2023-10-31T01:32:33;11.90;99.90
32769;DHT22;23049;54.304;8.826;2023-10-31T01:34:58;11.90;99.90
32769;DHT22;23049;54.304;8.826;2023-10-31T01:37:24;11.90;99.90
32769;DHT22;23049;54.304;8.826;2023-10-31T01:39:49;11.90;99.90
32769;DHT22;23049;54.304;8.826;2023-10-31T01:42:15;11.90;99.90
32769;DHT22;23049;54.304;8.826;2023-10-31T01:44:41;11.90;99.90
32769;DHT22;23049;54.304;8.826;2023-10-31T01:47:06;12.00;99.90
32769;DHT22;23049;54.304;8.826;2023-10-31T01:49:32;12.00;99.90
32769;DHT22;23049;54.304;8.826;2023-10-31T01:52:01;12.00;99.90
32769;DHT22;23049;54.304;8.826;2023-10-31T01:54:27;12.00;99.90
32769;DHT22;23049;54.304;8.826;2023-10-31T01:56:54;12.00;99.90
32769;DHT22;23049;54.304;8.826;2023-10-31T01:59:21;12.00;99.90
32769;DHT22;23049;54.304;8.826;2023-10-31T02:01:47;11.90;99.90
32769;DHT22;23049;54.304;8.826;2023-10-31T02:04:13;12.00;99.90
32769;DHT22;23049;54.304;8.826;2023-10-31T02:06:39;12.00;99.90
32769;DHT22;23049;54.304;8.826;2023-10-31T02:09:04;12.00;99.90
32769;DHT22;23049;54.304;8.826;2023-10-31T02:11:30;12.00;99.90
32769;DHT22;23049;54.304;8.826;2023-10-31T02:13:55;12.00;99.90
32769;DHT22;23049;54.304;8.826;2023-10-31T02:16:21;12.00;99.90
32769;DHT22;23049;54.304;8.826;2023-10-31T02:18:46;12.00;99.90
32769;DHT22;23049;54.304;8.826;2023-10-31T02:21:12;12.00;99.90
32769;DHT22;23049;54.304;8.826;2023-10-31T02:23:38;12.10;99.90
32769;DHT22;23049;54.304;8.826;2023-10-31T02:26:03;12.10;99.90
32769;DHT22;23049;54.304;8.826;2023-10-31T02:28:29;12.10;99.90
32769;DHT22;23049;54.304;8.826;2023-10-31T02:30:54;12.10;99.90
32769;DHT22;23049;54.304;8.826;2023-10-31T02:33:20;12.10;99.90
32769;DHT22;23049;54.304;8.826;2023-10-31T02:35:46;12.10;99.90
32769;DHT22;23049;54.304;8.826;2023-10-31T02:38:11;12.10;99.90
32769;DHT22;23049;54.304;8.826;2023-10-31T02:40:37;12.10;99.90
32769;DHT22;23049;54.304;8.826;2023-10-31T02:43:02;12.10;99.90
32769;DHT22;23049;54.304;8.826;2023-10-31T02:45:28;12.10;99.90
32769;DHT22;23049;54.304;8.826;2023-10-31T02:47:54;12.10;99.90
32769;DHT22;23049;54.304;8.826;2023-10-31T02:50:20;12.20;99.90
32769;DHT22;23049;54.304;8.826;2023-10-31T02:52:45;12.20;99.90
32769;DHT22;23049;54.304;8.826;2023-10-31T02:55:11;12.20;99.90
32769;DHT22;23049;54.304;8.826;2023-10-31T02:57:37;12.20;99.90
32769;DHT22;23049;54.304;8.826;2023-10-31T03:00:02;12.20;99.90
32769;DHT22;23049;54.304;8.826;2023-10-31T03:02:28;12.20;99.90
32769;DHT22;23049;54.304;8.826;2023-10-31T03:04:55;12.10;99.90
32769;DHT22;23049;54.304;8.826;2023-10-31T03:07:20;12.20;99.90
32769;DHT22;23049;54.304;8.826;2023-10-31T03:09:46;12.20;99.90
32769;DHT22;23049;54.304;8.826;2023-10-31T03:12:12;12.20;99.90
32769;DHT22;23049;54.304;8.826;2023-10-31T03:14:37;12.20;99.90
32769;DHT22;23049;54.304;8.826;2023-10-31T03:17:03;12.10;99.90
32769;DHT22;23049;54.304;8.826;2023-10-31T03:19:28;12.20;99.90
32769;DHT22;23049;54.304;8.826;2023-10-31T03:21:54;12.20;99.90
32769;DHT22;23049;54.304;8.826;2023-10-31T03:24:19;12.20;99.90
32769;DHT22;23049;54.304;8.826;2023-10-31T03:26:45;12.20;99.90
32769;DHT22;23049;54.304;8.826;2023-10-31T03:29:10;12.20;99.90
32769;DHT22;23049;54.304;8.826;2023-10-31T03:31:36;12.10;99.90
32769;DHT22;23049;54.304;8.826;2023-10-31T03:34:01;12.20;99.90
32769;DHT22;23049;54.304;8.826;2023-10-31T03:36:27;12.20;99.90
32769;DHT22;23049;54.304;8.826;2023-10-31T03:38:52;12.20;99.90
32769;DHT22;23049;54.304;8.826;2023-10-31T03:41:18;12.20;99.90
32769;DHT22;23049;54.304;8.826;2023-10-31T03:43:43;12.20;99.90
32769;DHT22;23049;54.304;8.826;2023-10-31T03:46:09;12.20;99.90
32769;DHT22;23049;54.304;8.826;2023-10-31T03:48:34;12.20;99.90
32769;DHT22;23049;54.304;8.826;2023-10-31T03:51:00;12.20;99.90
32769;DHT22;23049;54.304;8.826;2023-10-31T03:53:25;12.20;99.90
32769;DHT22;23049;54.304;8.826;2023-10-31T03:55:51;12.20;99.90
32769;DHT22;23049;54.304;8.826;2023-10-31T03:58:16;12.20;99.90
32769;DHT22;23049;54.304;8.826;2023-10-31T04:00:42;12.10;99.90
32769;DHT22;23049;54.304;8.826;2023-10-31T04:03:07;12.10;99.90
32769;DHT22;23049;54.304;8.826;2023-10-31T04:05:33;12.10;99.90
32769;DHT22;23049;54.304;8.826;2023-10-31T04:07:59;12.10;99.90
32769;DHT22;23049;54.304;8.826;2023-10-31T04:10:24;12.20;99.90
32769;DHT22;23049;54.304;8.826;2023-10-31T04:12:50;12.10;99.90
32769;DHT22;23049;54.304;8.826;2023-10-31T04:15:16;12.10;99.90
32769;DHT22;23049;54.304;8.826;2023-10-31T04:17:41;12.10;99.90
32769;DHT22;23049;54.304;8.826;2023-10-31T04:20:07;12.00;99.90
32769;DHT22;23049;54.304;8.826;2023-10-31T04:22:33;12.00;99.90
32769;DHT22;23049;54.304;8.826;2023-10-31T04:24:58;12.00;99.90
32769;DHT22;23049;54.304;8.826;2023-10-31T04:27:24;12.00;99.90
32769;DHT22;23049;54.304;8.826;2023-10-31T04:29:49;12.00;99.90
32769;DHT22;23049;54.304;8.826;2023-10-31T04:32:15;12.00;99.90
32769;DHT22;23049;54.304;8.826;2023-10-31T04:34:40;11.90;99.90
32769;DHT22;23049;54.304;8.826;2023-10-31T04:37:06;11.90;99.90
32769;DHT22;23049;54.304;8.826;2023-10-31T04:39:31;11.90;99.90
32769;DHT22;23049;54.304;8.826;2023-10-31T04:41:57;11.90;99.90
32769;DHT22;23049;54.304;8.826;2023-10-31T04:44:22;11.90;99.90
32769;DHT22;23049;54.304;8.826;2023-10-31T04:46:48;11.90;99.90
32769;DHT22;23049;54.304;8.826;2023-10-31T04:49:14;11.90;99.90
32769;DHT22;23049;54.304;8.826;2023-10-31T04:51:40;11.90;99.90
32769;DHT22;23049;54.304;8.826;2023-10-31T04:54:06;11.80;99.90
32769;DHT22;23049;54.304;8.826;2023-10-31T04:56:31;11.90;99.90
32769;DHT22;23049;54.304;8.826;2023-10-31T04:58:57;11.90;99.90
32769;DHT22;23049;54.304;8.826;2023-10-31T05:01:22;11.90;99.90
32769;DHT22;23049;54.304;8.826;2023-10-31T05:03:49;11.90;99.90
32769;DHT22;23049;54.304;8.826;2023-10-31T05:06:18;11.90;99.90
32769;DHT22;23049;54.304;8.826;2023-10-31T05:08:44;11.90;99.90
32769;DHT22;23049;54.304;8.826;2023-10-31T05:11:09;11.90;99.90
32769;DHT22;23049;54.304;8.826;2023-10-31T05:13:35;11.90;99.90
32769;DHT22;23049;54.304;8.826;2023-10-31T05:16:00;11.80;99.90
32769;DHT22;23049;54.304;8.826;2023-10-31T05:18:27;11.80;99.90
32769;DHT22;23049;54.304;8.826;2023-10-31T05:20:53;11.80;99.90
32769;DHT22;23049;54.304;8.826;2023-10-31T05:23:18;11.80;99.90
32769;DHT22;23049;54.304;8.826;2023-10-31T05:25:44;11.80;99.90
32769;DHT22;23049;54.304;8.826;2023-10-31T05:28:09;11.80;99.90
32769;DHT22;23049;54.304;8.826;2023-10-31T05:30:35;11.80;99.90
32769;DHT22;23049;54.304;8.826;2023-10-31T05:33:01;11.80;99.90
32769;DHT22;23049;54.304;8.826;2023-10-31T05:35:26;11.80;99.90
32769;DHT22;23049;54.304;8.826;2023-10-31T05:37:52;11.80;99.90
32769;DHT22;23049;54.304;8.826;2023-10-31T05:40:17;11.80;99.90
32769;DHT22;23049;54.304;8.826;2023-10-31T05:42:43;11.80;99.90
32769;DHT22;23049;54.304;8.826;2023-10-31T05:45:08;11.80;99.90
32769;DHT22;23049;54.304;8.826;2023-10-31T05:47:34;11.80;99.90
32769;DHT22;23049;54.304;8.826;2023-10-31T05:49:59;11.80;99.90
32769;DHT22;23049;54.304;8.826;2023-10-31T05:52:28;11.80;99.90
32769;DHT22;23049;54.304;8.826;2023-10-31T05:54:55;11.80;99.90
32769;DHT22;23049;54.304;8.826;2023-10-31T05:57:20;11.80;99.90
32769;DHT22;23049;54.304;8.826;2023-10-31T05:59:46;11.80;99.90
32769;DHT22;23049;54.304;8.826;2023-10-31T06:02:12;11.80;99.90
32769;DHT22;23049;54.304;8.826;2023-10-31T06:04:38;11.80;99.90
32769;DHT22;23049;54.304;8.826;2023-10-31T06:07:03;11.80;99.90
32769;DHT22;23049;54.304;8.826;2023-10-31T06:09:29;11.90;99.90
32769;DHT22;23049;54.304;8.826;2023-10-31T06:11:54;11.90;99.90
32769;DHT22;23049;54.304;8.826;2023-10-31T06:14:20;11.80;99.90
32769;DHT22;23049;54.304;8.826;2023-10-31T06:16:45;11.90;99.90
32769;DHT22;23049;54.304;8.826;2023-10-31T06:19:11;11.80;99.90
32769;DHT22;23049;54.304;8.826;2023-10-31T06:21:37;11.90;99.90
32769;DHT22;23049;54.304;8.826;2023-10-31T06:24:03;11.90;99.90
32769;DHT22;23049;54.304;8.826;2023-10-31T06:26:28;11.90;99.90
32769;DHT22;23049;54.304;8.826;2023-10-31T06:28:54;11.90;99.90
32769;DHT22;23049;54.304;8.826;2023-10-31T06:31:19;11.90;99.90
32769;DHT22;23049;54.304;8.826;2023-10-31T06:33:45;11.90;99.90
32769;DHT22;23049;54.304;8.826;2023-10-31T06:36:11;11.90;99.90
32769;DHT22;23049;54.304;8.826;2023-10-31T06:38:36;11.90;99.90
32769;DHT22;23049;54.304;8.826;2023-10-31T06:41:02;11.80;99.90
32769;DHT22;23049;54.304;8.826;2023-10-31T06:43:28;11.90;99.90
32769;DHT22;23049;54.304;8.826;2023-10-31T06:45:54;11.90;99.90
32769;DHT22;23049;54.304;8.826;2023-10-31T06:48:19;11.80;99.90
32769;DHT22;23049;54.304;8.826;2023-10-31T06:50:45;11.90;99.90
32769;DHT22;23049;54.304;8.826;2023-10-31T06:53:10;11.90;99.90
32769;DHT22;23049;54.304;8.826;2023-10-31T06:55:36;11.80;99.90
32769;DHT22;23049;54.304;8.826;2023-10-31T06:58:01;11.90;99.90
32769;DHT22;23049;54.304;8.826;2023-10-31T07:00:27;11.90;99.90
32769;DHT22;23049;54.304;8.826;2023-10-31T07:02:53;11.90;99.90
32769;DHT22;23049;54.304;8.826;2023-10-31T07:05:18;11.90;99.90
32769;DHT22;23049;54.304;8.826;2023-10-31T07:07:48;11.90;99.90
32769;DHT22;23049;54.304;8.826;2023-10-31T07:10:14;11.90;99.90
32769;DHT22;23049;54.304;8.826;2023-10-31T07:12:39;11.90;99.90
32769;DHT22;23049;54.304;8.826;2023-10-31T07:15:05;12.00;99.90
32769;DHT22;23049;54.304;8.826;2023-10-31T07:17:31;12.00;99.90
32769;DHT22;23049;54.304;8.826;2023-10-31T07:19:56;12.00;99.90
32769;DHT22;23049;54.304;8.826;2023-10-31T07:22:22;12.00;99.90
32769;DHT22;23049;54.304;8.826;2023-10-31T07:24:53;12.10;99.90
32769;DHT22;23049;54.304;8.826;2023-10-31T07:27:18;12.10;99.90
32769;DHT22;23049;54.304;8.826;2023-10-31T07:29:44;12.10;99.90
32769;DHT22;23049;54.304;8.826;2023-10-31T07:32:11;12.20;99.90
32769;DHT22;23049;54.304;8.826;2023-10-31T07:34:39;12.20;99.90
32769;DHT22;23049;54.304;8.826;2023-10-31T07:37:05;12.20;99.90
32769;DHT22;23049;54.304;8.826;2023-10-31T07:39:31;12.20;99.90
32769;DHT22;23049;54.304;8.826;2023-10-31T07:41:56;12.10;99.90
32769;DHT22;23049;54.304;8.826;2023-10-31T07:44:22;11.90;99.90
32769;DHT22;23049;54.304;8.826;2023-10-31T07:46:47;11.90;99.90
32769;DHT22;23049;54.304;8.826;2023-10-31T07:49:13;11.80;99.90
32769;DHT22;23049;54.304;8.826;2023-10-31T07:51:38;11.80;99.90
32769;DHT22;23049;54.304;8.826;2023-10-31T07:54:04;11.80;99.90
32769;DHT22;23049;54.304;8.826;2023-10-31T07:56:29;11.80;99.90
32769;DHT22;23049;54.304;8.826;2023-10-31T07:58:55;11.70;99.90
32769;DHT22;23049;54.304;8.826;2023-10-31T08:01:21;11.70;99.90
32769;DHT22;23049;54.304;8.826;2023-10-31T08:03:47;11.70;99.90
32769;DHT22;23049;54.304;8.826;2023-10-31T08:06:13;11.60;99.90
32769;DHT22;23049;54.304;8.826;2023-10-31T08:08:38;11.70;99.90
32769;DHT22;23049;54.304;8.826;2023-10-31T08:11:07;11.70;99.90
32769;DHT22;23049;54.304;8.826;2023-10-31T08:13:32;11.80;99.90
32769;DHT22;23049;54.304;8.826;2023-10-31T08:15:58;11.80;99.90
32769;DHT22;23049;54.304;8.826;2023-10-31T08:18:23;11.80;99.90
32769;DHT22;23049;54.304;8.826;2023-10-31T08:20:49;11.80;99.90
32769;DHT22;23049;54.304;8.826;2023-10-31T08:23:16;11.80;99.90
32769;DHT22;23049;54.304;8.826;2023-10-31T08:25:42;11.60;99.90
32769;DHT22;23049;54.304;8.826;2023-10-31T08:28:08;11.40;99.90
32769;DHT22;23049;54.304;8.826;2023-10-31T08:30:33;11.40;99.90
32769;DHT22;23049;54.304;8.826;2023-10-31T08:32:59;11.40;99.90
32769;DHT22;23049;54.304;8.826;2023-10-31T08:35:24;11.40;99.90
32769;DHT22;23049;54.304;8.826;2023-10-31T08:37:50;11.30;99.90
32769;DHT22;23049;54.304;8.826;2023-10-31T08:40:15;11.10;99.90
32769;DHT22;23049;54.304;8.826;2023-10-31T08:42:41;11.00;99.90
32769;DHT22;23049;54.304;8.826;2023-10-31T08:45:07;11.10;99.90
32769;DHT22;23049;54.304;8.826;2023-10-31T08:47:33;11.00;99.90
32769;DHT22;23049;54.304;8.826;2023-10-31T08:49:59;10.90;99.90
32769;DHT22;23049;54.304;8.826;2023-10-31T08:52:24;10.90;99.90
32769;DHT22;23049;54.304;8.826;2023-10-31T08:54:50;10.80;99.90
32769;DHT22;23049;54.304;8.826;2023-10-31T08:57:15;10.90;99.90
32769;DHT22;23049;54.304;8.826;2023-10-31T08:59:41;10.80;99.90
32769;DHT22;23049;54.304;8.826;2023-10-31T09:02:06;10.70;99.90
32769;DHT22;23049;54.304;8.826;2023-10-31T09:04:32;10.60;99.90
32769;DHT22;23049;54.304;8.826;2023-10-31T09:06:57;10.50;99.90
32769;DHT22;23049;54.304;8.826;2023-10-31T09:09:23;10.30;99.90
32769;DHT22;23049;54.304;8.826;2023-10-31T09:11:48;10.20;99.90
32769;DHT22;23049;54.304;8.826;2023-10-31T09:14:14;10.30;99.90
32769;DHT22;23049;54.304;8.826;2023-10-31T09:16:39;10.30;99.90
32769;DHT22;23049;54.304;8.826;2023-10-31T09:19:05;10.10;99.90
32769;DHT22;23049;54.304;8.826;2023-10-31T09:21:30;10.10;99.90
32769;DHT22;23049;54.304;8.826;2023-10-31T09:23:56;10.10;99.90
32769;DHT22;23049;54.304;8.826;2023-10-31T09:26:21;10.00;99.90
32769;DHT22;23049;54.304;8.826;2023-10-31T09:28:47;9.90;99.90
32769;DHT22;23049;54.304;8.826;2023-10-31T09:31:18;9.90;99.90
32769;DHT22;23049;54.304;8.826;2023-10-31T09:33:45;9.80;99.90
32769;DHT22;23049;54.304;8.826;2023-10-31T09:36:10;9.70;99.90
32769;DHT22;23049;54.304;8.826;2023-10-31T09:38:36;9.60;99.90
32769;DHT22;23049;54.304;8.826;2023-10-31T09:41:02;9.60;99.90
32769;DHT22;23049;54.304;8.826;2023-10-31T09:43:28;9.50;99.90
32769;DHT22;23049;54.304;8.826;2023-10-31T09:45:53;9.50;99.90
32769;DHT22;23049;54.304;8.826;2023-10-31T09:48:19;9.50;99.90
32769;DHT22;23049;54.304;8.826;2023-10-31T09:50:48;9.50;99.90
32769;DHT22;23049;54.304;8.826;2023-10-31T09:53:14;9.60;99.90
32769;DHT22;23049;54.304;8.826;2023-10-31T09:55:40;9.60;99.90
32769;DHT22;23049;54.304;8.826;2023-10-31T09:58:06;9.20;99.90
32769;DHT22;23049;54.304;8.826;2023-10-31T10:00:31;9.00;99.90
32769;DHT22;23049;54.304;8.826;2023-10-31T10:02:57;9.10;99.90
32769;DHT22;23049;54.304;8.826;2023-10-31T10:05:23;9.10;99.90
32769;DHT22;23049;54.304;8.826;2023-10-31T10:07:48;9.10;99.90
32769;DHT22;23049;54.304;8.826;2023-10-31T10:10:15;9.10;99.90
32769;DHT22;23049;54.304;8.826;2023-10-31T10:12:42;9.10;99.90
32769;DHT22;23049;54.304;8.826;2023-10-31T10:15:08;9.00;99.90
32769;DHT22;23049;54.304;8.826;2023-10-31T10:17:33;9.10;99.90
32769;DHT22;23049;54.304;8.826;2023-10-31T10:20:06;9.10;99.90
32769;DHT22;23049;54.304;8.826;2023-10-31T10:22:36;9.10;99.90
32769;DHT22;23049;54.304;8.826;2023-10-31T10:25:01;9.20;99.90
32769;DHT22;23049;54.304;8.826;2023-10-31T10:27:27;8.90;99.90
32769;DHT22;23049;54.304;8.826;2023-10-31T10:29:52;9.00;99.90
32769;DHT22;23049;54.304;8.826;2023-10-31T10:32:18;9.00;99.90
32769;DHT22;23049;54.304;8.826;2023-10-31T10:34:43;9.00;99.90
32769;DHT22;23049;54.304;8.826;2023-10-31T10:37:10;9.00;99.90
32769;DHT22;23049;54.304;8.826;2023-10-31T10:39:36;9.00;99.90
32769;DHT22;23049;54.304;8.826;2023-10-31T10:42:02;9.00;99.90
32769;DHT22;23049;54.304;8.826;2023-10-31T10:44:34;9.00;99.90
32769;DHT22;23049;54.304;8.826;2023-10-31T10:47:04;8.90;99.90
32769;DHT22;23049;54.304;8.826;2023-10-31T10:49:32;9.00;99.90
32769;DHT22;23049;54.304;8.826;2023-10-31T10:51:58;9.00;99.90
32769;DHT22;23049;54.304;8.826;2023-10-31T10:57:19;9.00;99.90
32769;DHT22;23049;54.304;8.826;2023-10-31T10:59:49;8.80;99.90
32769;DHT22;23049;54.304;8.826;2023-10-31T11:02:18;8.70;99.90
32769;DHT22;23049;54.304;8.826;2023-10-31T11:04:43;8.70;99.90
32769;DHT22;23049;54.304;8.826;2023-10-31T11:07:09;8.70;99.90
32769;DHT22;23049;54.304;8.826;2023-10-31T11:09:35;8.70;99.90
32769;DHT22;23049;54.304;8.826;2023-10-31T11:12:02;8.80;99.90
32769;DHT22;23049;54.304;8.826;2023-10-31T11:14:27;8.80;99.90
32769;DHT22;23049;54.304;8.826;2023-10-31T11:16:55;8.80;99.90
32769;DHT22;23049;54.304;8.826;2023-10-31T11:19:21;8.70;99.90
32769;DHT22;23049;54.304;8.826;2023-10-31T11:22:01;8.90;99.90
32769;DHT22;23049;54.304;8.826;2023-10-31T11:24:27;9.00;99.90
32769;DHT22;23049;54.304;8.826;2023-10-31T11:26:53;8.80;99.90
32769;DHT22;23049;54.304;8.826;2023-10-31T11:29:23;8.80;99.90
32769;DHT22;23049;54.304;8.826;2023-10-31T11:31:48;8.70;99.90
32769;DHT22;23049;54.304;8.826;2023-10-31T11:34:15;8.70;99.90
32769;DHT22;23049;54.304;8.826;2023-10-31T11:36:41;8.80;99.90
32769;DHT22;23049;54.304;8.826;2023-10-31T11:39:13;8.70;99.90
32769;DHT22;23049;54.304;8.826;2023-10-31T11:41:39;8.70;99.90
32769;DHT22;23049;54.304;8.826;2023-10-31T11:44:05;8.60;99.90
32769;DHT22;23049;54.304;8.826;2023-10-31T11:46:31;8.60;99.90
32769;DHT22;23049;54.304;8.826;2023-10-31T11:48:56;8.50;99.90
32769;DHT22;23049;54.304;8.826;2023-10-31T11:51:22;8.50;99.90
32769;DHT22;23049;54.304;8.826;2023-10-31T11:53:48;8.60;99.90
32769;DHT22;23049;54.304;8.826;2023-10-31T11:56:15;8.60;99.90
32769;DHT22;23049;54.304;8.826;2023-10-31T11:58:41;8.60;99.90
32769;DHT22;23049;54.304;8.826;2023-10-31T12:01:10;8.50;99.90
32769;DHT22;23049;54.304;8.826;2023-10-31T12:03:40;8.60;99.90
32769;DHT22;23049;54.304;8.826;2023-10-31T12:06:05;8.40;99.90
32769;DHT22;23049;54.304;8.826;2023-10-31T12:08:38;8.40;99.90
32769;DHT22;23049;54.304;8.826;2023-10-31T12:13:30;8.40;99.90
32769;DHT22;23049;54.304;8.826;2023-10-31T12:15:55;8.40;99.90
32769;DHT22;23049;54.304;8.826;2023-10-31T12:18:21;8.30;99.90
32769;DHT22;23049;54.304;8.826;2023-10-31T12:20:50;8.30;99.90
32769;DHT22;23049;54.304;8.826;2023-10-31T12:23:17;8.20;99.90
32769;DHT22;23049;54.304;8.826;2023-10-31T12:25:48;8.20;99.90
32769;DHT22;23049;54.304;8.826;2023-10-31T12:28:21;8.30;99.90
32769;DHT22;23049;54.304;8.826;2023-10-31T12:30:47;8.20;99.90
32769;DHT22;23049;54.304;8.826;2023-10-31T12:33:13;8.20;99.90
32769;DHT22;23049;54.304;8.826;2023-10-31T12:35:39;8.30;99.90
32769;DHT22;23049;54.304;8.826;2023-10-31T12:38:04;8.20;99.90
32769;DHT22;23049;54.304;8.826;2023-10-31T12:40:30;8.30;99.90
32769;DHT22;23049;54.304;8.826;2023-10-31T12:42:56;8.10;99.90
32769;DHT22;23049;54.304;8.826;2023-10-31T12:45:22;8.00;99.90
32769;DHT22;23049;54.304;8.826;2023-10-31T12:48:01;8.00;99.90
32769;DHT22;23049;54.304;8.826;2023-10-31T12:50:28;8.00;99.90
32769;DHT22;23049;54.304;8.826;2023-10-31T12:52:54;8.10;99.90
32769;DHT22;23049;54.304;8.826;2023-10-31T12:55:22;8.10;99.90
32769;DHT22;23049;54.304;8.826;2023-10-31T12:57:49;8.20;99.90
32769;DHT22;23049;54.304;8.826;2023-10-31T13:00:15;8.20;99.90
32769;DHT22;23049;54.304;8.826;2023-10-31T13:02:42;8.10;99.90
32769;DHT22;23049;54.304;8.826;2023-10-31T13:05:11;8.10;99.90
32769;DHT22;23049;54.304;8.826;2023-10-31T13:07:37;8.10;99.90
32769;DHT22;23049;54.304;8.826;2023-10-31T13:10:04;8.10;99.90
32769;DHT22;23049;54.304;8.826;2023-10-31T13:12:30;8.10;99.90
32769;DHT22;23049;54.304;8.826;2023-10-31T13:14:55;8.10;99.90
32769;DHT22;23049;54.304;8.826;2023-10-31T13:17:21;8.20;99.90
32769;DHT22;23049;54.304;8.826;2023-10-31T13:19:46;8.10;99.90
32769;DHT22;23049;54.304;8.826;2023-10-31T13:22:12;8.00;99.90
32769;DHT22;23049;54.304;8.826;2023-10-31T13:24:37;8.00;99.90
32769;DHT22;23049;54.304;8.826;2023-10-31T13:27:03;8.00;99.90
32769;DHT22;23049;54.304;8.826;2023-10-31T13:29:29;8.00;99.90
32769;DHT22;23049;54.304;8.826;2023-10-31T13:31:54;7.90;99.90
32769;DHT22;23049;54.304;8.826;2023-10-31T13:34:20;7.80;99.90
32769;DHT22;23049;54.304;8.826;2023-10-31T13:36:46;7.80;99.90
32769;DHT22;23049;54.304;8.826;2023-10-31T13:39:11;7.70;99.90
32769;DHT22;23049;54.304;8.826;2023-10-31T13:41:37;7.70;99.90
32769;DHT22;23049;54.304;8.826;2023-10-31T13:44:03;7.70;99.90
32769;DHT22;23049;54.304;8.826;2023-10-31T13:46:29;7.60;99.90
32769;DHT22;23049;54.304;8.826;2023-10-31T13:48:54;7.70;99.90
32769;DHT22;23049;54.304;8.826;2023-10-31T13:51:20;7.60;99.90
32769;DHT22;23049;54.304;8.826;2023-10-31T13:53:45;7.70;99.90
32769;DHT22;23049;54.304;8.826;2023-10-31T13:56:11;7.70;99.90
32769;DHT22;23049;54.304;8.826;2023-10-31T13:58:36;7.80;99.90
32769;DHT22;23049;54.304;8.826;2023-10-31T14:01:02;7.80;99.90
32769;DHT22;23049;54.304;8.826;2023-10-31T14:03:27;7.60;99.90
32769;DHT22;23049;54.304;8.826;2023-10-31T14:05:53;7.40;99.90
32769;DHT22;23049;54.304;8.826;2023-10-31T14:08:18;7.30;99.90
32769;DHT22;23049;54.304;8.826;2023-10-31T14:10:44;7.20;99.90
32769;DHT22;23049;54.304;8.826;2023-10-31T14:13:11;7.10;99.90
32769;DHT22;23049;54.304;8.826;2023-10-31T14:15:36;7.00;99.90
32769;DHT22;23049;54.304;8.826;2023-10-31T14:18:03;7.00;99.90
32769;DHT22;23049;54.304;8.826;2023-10-31T14:20:29;6.90;99.90
32769;DHT22;23049;54.304;8.826;2023-10-31T14:22:54;6.90;99.90
32769;DHT22;23049;54.304;8.826;2023-10-31T14:25:20;7.00;99.90
32769;DHT22;23049;54.304;8.826;2023-10-31T14:27:45;7.00;99.90
32769;DHT22;23049;54.304;8.826;2023-10-31T14:30:11;7.10;99.90
32769;DHT22;23049;54.304;8.826;2023-10-31T14:32:37;7.10;99.90
32769;DHT22;23049;54.304;8.826;2023-10-31T14:35:03;7.10;99.90
32769;DHT22;23049;54.304;8.826;2023-10-31T14:37:29;7.10;99.90
32769;DHT22;23049;54.304;8.826;2023-10-31T14:39:55;7.10;99.90
32769;DHT22;23049;54.304;8.826;2023-10-31T14:42:20;7.10;99.90
32769;DHT22;23049;54.304;8.826;2023-10-31T14:44:46;7.00;99.90
32769;DHT22;23049;54.304;8.826;2023-10-31T14:47:11;7.00;99.90
32769;DHT22;23049;54.304;8.826;2023-10-31T14:49:37;7.10;99.90
32769;DHT22;23049;54.304;8.826;2023-10-31T14:52:03;7.00;99.90
32769;DHT22;23049;54.304;8.826;2023-10-31T14:54:29;7.00;99.90
32769;DHT22;23049;54.304;8.826;2023-10-31T14:56:56;7.00;99.90
32769;DHT22;23049;54.304;8.826;2023-10-31T14:59:22;7.00;99.90
32769;DHT22;23049;54.304;8.826;2023-10-31T15:01:47;7.00;99.90
32769;DHT22;23049;54.304;8.826;2023-10-31T15:04:14;6.80;99.90
32769;DHT22;23049;54.304;8.826;2023-10-31T15:06:39;6.90;99.90
32769;DHT22;23049;54.304;8.826;2023-10-31T15:09:05;6.80;99.90
32769;DHT22;23049;54.304;8.826;2023-10-31T15:11:30;6.80;99.90
32769;DHT22;23049;54.304;8.826;2023-10-31T15:13:56;6.70;99.90
32769;DHT22;23049;54.304;8.826;2023-10-31T15:16:21;6.70;99.90
32769;DHT22;23049;54.304;8.826;2023-10-31T15:18:47;6.70;99.90
32769;DHT22;23049;54.304;8.826;2023-10-31T15:21:12;6.70;99.90
32769;DHT22;23049;54.304;8.826;2023-10-31T15:23:38;6.70;99.90
32769;DHT22;23049;54.304;8.826;2023-10-31T15:26:04;6.60;99.90
32769;DHT22;23049;54.304;8.826;2023-10-31T15:28:29;6.60;99.90
32769;DHT22;23049;54.304;8.826;2023-10-31T15:30:55;6.50;99.90
32769;DHT22;23049;54.304;8.826;2023-10-31T15:33:21;6.40;99.90